Time;durP1;ratioP1;P1;durP2;ratioP2;P2;SDS_P1;SDS_P2;PMS_P1;PMS_P2;Temp;Humidity;BMP_temperature;BMP_pressure;BME280_temperature;BME280_humidity;BME280_pressure;Samples;Min_cycle;Max_cycle;Signal;HPM_P1;HPM_P2
2021/09/16 00:01:22;;;;;;;12.68;5.32;;;;;;;;;;5070124;28;20032;-74
2021/09/16 00:03:48;;;;;;;9.43;5.70;;;;;;;;;;5065561;28;20032;-73
2021/09/16 00:06:14;;;;;;;10.25;5.40;;;;;;;;;;5053072;28;20111;-75
2021/09/16 00:08:41;;;;;;;12.55;6.18;;;;;;;;;;5056366;28;20024;-75
2021/09/16 00:11:07;;;;;;;10.50;6.03;;;;;;;;;;5073134;28;20025;-76
2021/09/16 00:13:33;;;;;;;7.72;5.65;;;;;;;;;;5051448;28;20505;-76
2021/09/16 00:15:59;;;;;;;6.85;5.38;;;;;;;;;;5074509;28;20044;-76
2021/09/16 00:18:25;;;;;;;6.78;5.30;;;;;;;;;;5070887;28;20544;-75
2021/09/16 00:20:51;;;;;;;13.90;6.13;;;;;;;;;;5066465;28;20036;-76
2021/09/16 00:23:17;;;;;;;7.25;5.75;;;;;;;;;;5070990;28;20031;-77
2021/09/16 00:25:44;;;;;;;11.35;5.30;;;;;;;;;;5073599;28;20059;-77
2021/09/16 00:28:10;;;;;;;6.72;5.35;;;;;;;;;;5074033;28;20024;-75
2021/09/16 00:30:36;;;;;;;9.63;5.50;;;;;;;;;;5067975;28;20025;-74
2021/09/16 00:33:02;;;;;;;9.02;5.53;;;;;;;;;;5071057;28;20025;-77
2021/09/16 00:35:28;;;;;;;8.02;5.35;;;;;;;;;;5055301;28;20035;-77
2021/09/16 00:37:55;;;;;;;8.95;5.32;;;;;;;;;;5070291;28;20100;-76
2021/09/16 00:40:21;;;;;;;10.73;5.40;;;;;;;;;;5074972;28;20036;-77
2021/09/16 00:42:47;;;;;;;9.90;4.97;;;;;;;;;;5073226;28;20021;-74
2021/09/16 00:45:13;;;;;;;9.70;5.47;;;;;;;;;;5071857;28;20076;-74
2021/09/16 00:47:42;;;;;;;8.85;6.13;;;;;;;;;;5071085;28;20055;-77
2021/09/16 00:50:08;;;;;;;9.95;6.45;;;;;;;;;;5073213;28;20035;-77
2021/09/16 00:52:39;;;;;;;9.57;5.25;;;;;;;;;;5077986;28;20025;-74
2021/09/16 00:55:05;;;;;;;8.40;5.75;;;;;;;;;;5069463;28;20036;-76
2021/09/16 00:57:33;;;;;;;9.18;5.85;;;;;;;;;;5067086;28;20025;-77
2021/09/16 01:00:00;;;;;;;8.32;5.93;;;;;;;;;;5071910;28;20108;-76
2021/09/16 01:02:26;;;;;;;10.00;6.72;;;;;;;;;;5070415;28;20032;-76
2021/09/16 01:04:53;;;;;;;7.85;6.55;;;;;;;;;;5073342;28;20471;-75
2021/09/16 01:07:21;;;;;;;9.15;6.35;;;;;;;;;;5063674;28;20028;-76
2021/09/16 01:09:48;;;;;;;8.98;6.88;;;;;;;;;;5055983;28;20056;-77
2021/09/16 01:12:14;;;;;;;12.73;8.32;;;;;;;;;;5067149;28;20493;-76
2021/09/16 01:14:40;;;;;;;12.02;8.52;;;;;;;;;;5071033;28;20362;-77
2021/09/16 01:17:06;;;;;;;13.98;8.68;;;;;;;;;;5072000;28;20020;-77
2021/09/16 01:19:37;;;;;;;12.63;8.68;;;;;;;;;;5066125;28;20382;-75
2021/09/16 01:22:04;;;;;;;13.07;9.70;;;;;;;;;;5054298;28;20388;-74
2021/09/16 01:24:30;;;;;;;12.68;9.23;;;;;;;;;;5069028;28;20036;-75
2021/09/16 01:27:33;;;;;;;20.25;9.60;;;;;;;;;;5072892;28;20493;-76
2021/09/16 01:29:59;;;;;;;14.93;9.55;;;;;;;;;;5070985;28;20021;-77
2021/09/16 01:32:42;;;;;;;16.92;9.55;;;;;;;;;;5071363;28;20560;-73
2021/09/16 01:35:08;;;;;;;13.82;8.85;;;;;;;;;;5028842;28;20221;-76
2021/09/16 01:37:37;;;;;;;15.25;9.77;;;;;;;;;;5029416;28;20061;-75
2021/09/16 01:40:06;;;;;;;15.85;8.75;;;;;;;;;;5030288;28;20116;-76
2021/09/16 01:42:35;;;;;;;13.90;9.75;;;;;;;;;;5016948;28;20580;-75
2021/09/16 01:45:04;;;;;;;16.92;9.93;;;;;;;;;;5028649;28;20088;-74
2021/09/16 01:47:30;;;;;;;15.10;10.15;;;;;;;;;;5005936;28;20033;-74
2021/09/16 01:49:57;;;;;;;14.40;10.10;;;;;;;;;;5034196;28;20068;-76
2021/09/16 01:52:28;;;;;;;16.92;10.18;;;;;;;;;;5022593;28;20026;-75
2021/09/16 01:54:54;;;;;;;14.77;10.63;;;;;;;;;;5030451;28;20037;-75
2021/09/16 01:57:20;;;;;;;16.67;10.18;;;;;;;;;;5028884;28;20068;-75
2021/09/16 01:59:47;;;;;;;16.42;10.48;;;;;;;;;;5028969;28;20083;-73
2021/09/16 02:02:13;;;;;;;14.63;10.27;;;;;;;;;;5027515;28;20193;-73
2021/09/16 02:04:41;;;;;;;17.88;10.05;;;;;;;;;;5022534;28;20537;-75
2021/09/16 02:07:11;;;;;;;15.23;10.23;;;;;;;;;;5062768;28;20123;-75
2021/09/16 02:09:37;;;;;;;16.23;9.90;;;;;;;;;;5070425;28;20025;-76
2021/09/16 02:12:03;;;;;;;16.85;10.10;;;;;;;;;;5069153;28;20024;-76
2021/09/16 02:14:29;;;;;;;16.48;9.93;;;;;;;;;;5071857;28;20024;-75
2021/09/16 02:16:55;;;;;;;14.48;9.38;;;;;;;;;;5060579;28;20033;-76
2021/09/16 02:19:29;;;;;;;15.63;9.20;;;;;;;;;;5065221;28;20025;-76
2021/09/16 02:21:58;;;;;;;16.83;10.30;;;;;;;;;;5062133;28;20024;-75
2021/09/16 02:24:24;;;;;;;14.73;10.05;;;;;;;;;;5079355;28;20020;-74
2021/09/16 02:27:08;;;;;;;15.23;9.63;;;;;;;;;;5084419;28;20040;-76
2021/09/16 02:29:34;;;;;;;16.00;10.00;;;;;;;;;;5042896;28;20032;-77
2021/09/16 02:32:01;;;;;;;17.80;9.35;;;;;;;;;;5073803;28;20429;-77
2021/09/16 02:34:27;;;;;;;18.05;9.85;;;;;;;;;;5062093;28;20432;-75
2021/09/16 02:36:53;;;;;;;16.30;10.18;;;;;;;;;;5051971;28;20111;-76
2021/09/16 02:39:21;;;;;;;16.25;10.02;;;;;;;;;;5070124;28;20032;-77
2021/09/16 02:41:47;;;;;;;16.33;9.05;;;;;;;;;;5052881;28;20085;-76
2021/09/16 02:44:14;;;;;;;14.60;9.75;;;;;;;;;;5070127;28;20029;-76
2021/09/16 02:46:40;;;;;;;17.30;9.52;;;;;;;;;;5072949;28;20040;-76
2021/09/16 02:49:06;;;;;;;17.65;10.25;;;;;;;;;;5071629;28;20052;-74
2021/09/16 02:51:34;;;;;;;15.02;9.65;;;;;;;;;;5071185;28;20056;-77
2021/09/16 02:54:01;;;;;;;17.70;9.88;;;;;;;;;;5055290;28;20047;-76
2021/09/16 02:56:29;;;;;;;14.63;9.40;;;;;;;;;;5057564;28;20039;-76
2021/09/16 02:58:55;;;;;;;16.98;10.18;;;;;;;;;;5059713;28;20024;-75
2021/09/16 03:01:21;;;;;;;21.17;10.30;;;;;;;;;;5057349;28;20077;-73
2021/09/16 03:03:50;;;;;;;15.27;10.27;;;;;;;;;;5056093;28;20041;-76
2021/09/16 03:06:16;;;;;;;19.33;12.77;;;;;;;;;;5064953;28;20520;-76
2021/09/16 03:08:45;;;;;;;17.10;12.63;;;;;;;;;;5071892;28;20108;-75
2021/09/16 03:11:19;;;;;;;16.67;10.30;;;;;;;;;;5061081;28;20058;-77
2021/09/16 03:13:45;;;;;;;17.05;10.05;;;;;;;;;;5072314;28;20028;-76
2021/09/16 03:16:11;;;;;;;15.07;9.07;;;;;;;;;;5071056;28;20103;-76
2021/09/16 03:18:37;;;;;;;17.05;9.93;;;;;;;;;;5074515;28;20024;-75
2021/09/16 03:21:04;;;;;;;14.50;9.48;;;;;;;;;;5075466;28;20043;-75
2021/09/16 03:23:30;;;;;;;19.25;9.80;;;;;;;;;;5082054;28;20089;-76
2021/09/16 03:25:56;;;;;;;18.83;9.32;;;;;;;;;;5075326;28;20083;-76
2021/09/16 03:28:25;;;;;;;14.77;9.45;;;;;;;;;;5085803;28;20024;-76
2021/09/16 03:30:53;;;;;;;15.05;9.52;;;;;;;;;;5056804;28;20513;-75
2021/09/16 03:33:20;;;;;;;19.67;10.10;;;;;;;;;;5058031;28;20024;-76
2021/09/16 03:35:46;;;;;;;18.48;9.70;;;;;;;;;;5056574;28;20030;-76
2021/09/16 03:38:12;;;;;;;15.98;9.00;;;;;;;;;;5056833;28;20126;-76
2021/09/16 03:40:38;;;;;;;17.85;10.20;;;;;;;;;;5062574;28;20021;-76
2021/09/16 03:43:05;;;;;;;15.73;9.80;;;;;;;;;;5050402;28;20028;-76
2021/09/16 03:45:31;;;;;;;14.05;9.15;;;;;;;;;;5074627;28;20442;-75
2021/09/16 03:47:59;;;;;;;13.77;9.50;;;;;;;;;;5073992;28;20393;-75
2021/09/16 03:50:26;;;;;;;12.70;9.10;;;;;;;;;;5074608;28;20027;-76
2021/09/16 03:52:52;;;;;;;18.10;9.85;;;;;;;;;;5072106;28;20033;-75
2021/09/16 03:55:18;;;;;;;13.52;9.38;;;;;;;;;;5074474;28;20056;-75
2021/09/16 03:57:46;;;;;;;15.60;9.60;;;;;;;;;;5073959;28;20032;-75
2021/09/16 04:00:12;;;;;;;17.35;9.73;;;;;;;;;;5072343;28;20056;-75
2021/09/16 04:02:39;;;;;;;14.32;9.02;;;;;;;;;;5072519;28;20079;-74
2021/09/16 04:05:05;;;;;;;15.07;8.98;;;;;;;;;;5072964;28;20024;-75
2021/09/16 04:07:31;;;;;;;18.98;9.05;;;;;;;;;;5064728;28;20051;-76
2021/09/16 04:09:59;;;;;;;15.80;9.60;;;;;;;;;;5064643;28;20057;-75
2021/09/16 04:12:25;;;;;;;23.10;9.52;;;;;;;;;;5075152;28;20020;-75
2021/09/16 04:14:51;;;;;;;16.88;9.73;;;;;;;;;;5063981;28;20096;-76
2021/09/16 04:17:17;;;;;;;18.98;9.13;;;;;;;;;;5070776;28;20137;-75
2021/09/16 04:19:44;;;;;;;16.50;9.65;;;;;;;;;;5072254;28;20429;-76
2021/09/16 04:22:10;;;;;;;13.82;9.05;;;;;;;;;;5068763;28;20036;-76
2021/09/16 04:24:36;;;;;;;19.48;9.07;;;;;;;;;;5073342;28;20074;-76
2021/09/16 04:27:02;;;;;;;20.73;9.30;;;;;;;;;;5071150;28;20063;-75
2021/09/16 04:29:28;;;;;;;20.50;9.02;;;;;;;;;;5074071;28;20027;-76
2021/09/16 04:31:55;;;;;;;19.80;8.82;;;;;;;;;;5070110;28;20503;-76
2021/09/16 04:34:22;;;;;;;19.27;9.65;;;;;;;;;;5072969;28;20036;-76
2021/09/16 04:36:48;;;;;;;23.25;9.48;;;;;;;;;;5073576;28;20181;-76
2021/09/16 04:39:20;;;;;;;24.63;9.35;;;;;;;;;;5065365;28;20033;-74
2021/09/16 04:41:46;;;;;;;36.75;9.27;;;;;;;;;;5066630;28;20428;-74
2021/09/16 04:44:12;;;;;;;37.25;10.07;;;;;;;;;;5071392;28;20411;-76
2021/09/16 04:46:38;;;;;;;39.00;10.57;;;;;;;;;;5074964;28;20051;-72
2021/09/16 04:49:04;;;;;;;27.45;9.63;;;;;;;;;;5067528;28;20033;-76
2021/09/16 04:51:30;;;;;;;26.35;9.13;;;;;;;;;;5070509;28;20385;-75
2021/09/16 04:53:56;;;;;;;99.38;13.68;;;;;;;;;;5065369;28;20031;-76
2021/09/16 04:56:23;;;;;;;212.07;20.95;;;;;;;;;;5072087;28;20025;-74
2021/09/16 04:58:49;;;;;;;164.20;17.95;;;;;;;;;;5071161;28;20078;-78
2021/09/16 05:01:15;;;;;;;100.22;15.32;;;;;;;;;;5072423;28;20033;-72
2021/09/16 05:03:41;;;;;;;16.50;8.82;;;;;;;;;;5069685;28;20519;-74
2021/09/16 05:06:08;;;;;;;15.30;9.05;;;;;;;;;;5070843;28;20041;-74
2021/09/16 05:08:34;;;;;;;39.40;10.73;;;;;;;;;;5070006;28;20028;-77
2021/09/16 05:11:00;;;;;;;34.15;10.05;;;;;;;;;;5050235;28;20477;-74
2021/09/16 05:13:26;;;;;;;23.08;9.75;;;;;;;;;;5066870;28;20028;-77
2021/09/16 05:15:56;;;;;;;16.15;9.73;;;;;;;;;;5065835;28;20048;-79
2021/09/16 05:18:22;;;;;;;15.43;8.93;;;;;;;;;;5053070;28;20124;-77
2021/09/16 05:20:56;;;;;;;13.35;8.40;;;;;;;;;;5074845;28;20401;-76
2021/09/16 05:23:22;;;;;;;18.13;8.55;;;;;;;;;;5069806;28;20051;-84
2021/09/16 05:25:51;;;;;;;15.23;7.72;;;;;;;;;;5072163;28;20052;-77
2021/09/16 05:28:18;;;;;;;14.18;7.88;;;;;;;;;;5067124;28;20154;-74
2021/09/16 05:30:44;;;;;;;11.43;7.22;;;;;;;;;;5071144;28;20414;-71
2021/09/16 05:33:10;;;;;;;12.57;6.55;;;;;;;;;;5065605;28;20016;-75
2021/09/16 05:35:36;;;;;;;10.13;7.00;;;;;;;;;;5063495;28;20039;-70
2021/09/16 05:38:03;;;;;;;19.83;7.03;;;;;;;;;;5064775;28;20021;-82
2021/09/16 05:40:30;;;;;;;19.90;7.45;;;;;;;;;;5070401;28;20083;-76
2021/09/16 05:42:58;;;;;;;15.75;7.15;;;;;;;;;;5070142;28;20102;-85
2021/09/16 05:45:24;;;;;;;12.15;6.13;;;;;;;;;;5068260;28;20066;-73
2021/09/16 05:47:50;;;;;;;30.65;7.40;;;;;;;;;;5070485;28;20032;-77
2021/09/16 05:50:16;;;;;;;20.80;6.53;;;;;;;;;;5072197;28;20041;-77
2021/09/16 05:52:42;;;;;;;19.33;7.47;;;;;;;;;;5071306;28;20112;-65
2021/09/16 05:55:09;;;;;;;14.48;6.75;;;;;;;;;;5071410;28;20024;-73
2021/09/16 05:57:36;;;;;;;30.02;7.00;;;;;;;;;;5071685;28;20024;-74
2021/09/16 06:00:03;;;;;;;17.42;6.20;;;;;;;;;;5071901;28;20367;-72
2021/09/16 06:02:29;;;;;;;14.77;6.10;;;;;;;;;;5071549;28;20041;-73
2021/09/16 06:04:55;;;;;;;57.00;8.80;;;;;;;;;;5052713;28;20033;-71
2021/09/16 06:07:22;;;;;;;33.03;6.97;;;;;;;;;;5072193;28;20051;-65
2021/09/16 06:09:48;;;;;;;12.48;6.13;;;;;;;;;;5071523;28;20032;-73
2021/09/16 06:12:14;;;;;;;16.70;6.13;;;;;;;;;;5071245;28;20028;-74
2021/09/16 06:14:40;;;;;;;15.75;6.22;;;;;;;;;;5072032;28;20090;-68
2021/09/16 06:17:06;;;;;;;10.50;5.90;;;;;;;;;;5068517;28;20048;-75
2021/09/16 06:19:35;;;;;;;11.70;6.30;;;;;;;;;;5070384;28;20028;-78
2021/09/16 06:22:01;;;;;;;9.32;5.85;;;;;;;;;;5060285;28;20107;-73
2021/09/16 06:24:27;;;;;;;12.07;6.15;;;;;;;;;;5071354;28;20035;-75
2021/09/16 06:26:53;;;;;;;16.85;8.27;;;;;;;;;;5070844;28;20123;-73
2021/09/16 06:29:20;;;;;;;27.85;7.07;;;;;;;;;;5071287;28;20021;-73
2021/09/16 06:31:49;;;;;;;17.13;6.00;;;;;;;;;;5069802;28;20082;-73
2021/09/16 06:34:15;;;;;;;13.02;5.85;;;;;;;;;;5067820;28;20021;-75
2021/09/16 06:36:41;;;;;;;14.73;5.38;;;;;;;;;;5070018;28;20024;-73
2021/09/16 06:39:07;;;;;;;11.65;5.97;;;;;;;;;;5068909;28;20112;-72
2021/09/16 06:41:33;;;;;;;10.68;6.00;;;;;;;;;;5071334;28;20031;-73
2021/09/16 06:43:59;;;;;;;14.00;6.15;;;;;;;;;;5070638;28;20017;-73
2021/09/16 06:46:38;;;;;;;;;;;;;;;;;;;;;
2021/09/16 06:49:08;;;;;;;12.80;6.80;;;;;;;;;;5068456;28;20025;-73
2021/09/16 06:51:34;;;;;;;13.15;7.00;;;;;;;;;;5070301;28;20025;-74
2021/09/16 06:54:06;;;;;;;14.32;6.78;;;;;;;;;;5068795;28;20052;-74
2021/09/16 06:56:35;;;;;;;13.30;7.05;;;;;;;;;;5043841;28;20036;-75
2021/09/16 06:59:01;;;;;;;18.50;6.78;;;;;;;;;;5051292;28;20133;-70
2021/09/16 07:01:27;;;;;;;14.45;6.75;;;;;;;;;;5051233;28;20048;-71
2021/09/16 07:03:54;;;;;;;18.92;6.45;;;;;;;;;;5065003;28;20049;-71
2021/09/16 07:06:22;;;;;;;8.23;6.03;;;;;;;;;;5064617;28;20025;-71
2021/09/16 07:08:49;;;;;;;15.68;6.80;;;;;;;;;;5066404;28;20104;-69
2021/09/16 07:11:17;;;;;;;14.80;6.68;;;;;;;;;;5069518;28;20024;-76
2021/09/16 07:13:43;;;;;;;13.98;6.93;;;;;;;;;;5066271;28;20024;-71
2021/09/16 07:16:09;;;;;;;11.27;6.40;;;;;;;;;;5071170;28;20063;-73
2021/09/16 07:18:36;;;;;;;15.50;7.18;;;;;;;;;;5069203;28;20157;-72
2021/09/16 07:21:04;;;;;;;13.07;6.18;;;;;;;;;;5067291;28;20028;-72
2021/09/16 07:23:31;;;;;;;11.80;6.28;;;;;;;;;;5068779;28;20029;-74
2021/09/16 07:25:57;;;;;;;14.43;6.40;;;;;;;;;;5071131;28;20107;-72
2021/09/16 07:28:23;;;;;;;12.65;6.10;;;;;;;;;;5070375;28;20486;-72
2021/09/16 07:30:49;;;;;;;12.10;6.13;;;;;;;;;;5070844;28;20066;-71
2021/09/16 07:33:15;;;;;;;23.27;6.93;;;;;;;;;;5070348;28;20099;-71
2021/09/16 07:35:50;;;;;;;16.33;8.65;;;;;;;;;;5070916;28;20107;-72
2021/09/16 07:38:16;;;;;;;22.83;12.43;;;;;;;;;;5073154;28;20149;-70
2021/09/16 07:40:43;;;;;;;29.00;16.73;;;;;;;;;;5072782;28;20050;-74
2021/09/16 07:43:09;;;;;;;21.65;12.57;;;;;;;;;;5074572;28;20024;-67
2021/09/16 07:45:36;;;;;;;22.55;10.43;;;;;;;;;;5074160;28;20091;-69
2021/09/16 07:48:02;;;;;;;20.60;9.18;;;;;;;;;;5073263;28;20070;-69
2021/09/16 07:50:28;;;;;;;19.48;8.25;;;;;;;;;;5070575;28;20416;-70
2021/09/16 07:52:54;;;;;;;15.07;7.93;;;;;;;;;;5072712;28;20056;-68
2021/09/16 07:55:20;;;;;;;17.98;7.88;;;;;;;;;;5072991;28;20023;-69
2021/09/16 07:57:46;;;;;;;22.40;7.75;;;;;;;;;;5073342;28;20029;-70
2021/09/16 08:00:12;;;;;;;17.65;7.60;;;;;;;;;;5073101;28;20040;-68
2021/09/16 08:02:50;;;;;;;15.32;8.23;;;;;;;;;;5070332;28;20098;-69
2021/09/16 08:05:16;;;;;;;19.17;8.43;;;;;;;;;;5073137;28;20031;-68
2021/09/16 08:07:43;;;;;;;13.85;6.88;;;;;;;;;;5073635;28;20505;-70
2021/09/16 08:10:16;;;;;;;20.02;8.73;;;;;;;;;;5073874;28;20013;-69
2021/09/16 08:12:45;;;;;;;17.02;8.45;;;;;;;;;;5055206;28;20497;-76
2021/09/16 08:15:18;;;;;;;16.83;8.45;;;;;;;;;;5070641;28;20021;-76
2021/09/16 08:17:46;;;;;;;22.48;8.52;;;;;;;;;;5070260;28;20035;-73
2021/09/16 08:20:18;;;;;;;21.88;8.93;;;;;;;;;;5072651;28;20029;-77
2021/09/16 08:22:45;;;;;;;17.75;9.02;;;;;;;;;;5070396;28;20454;-81
2021/09/16 08:25:12;;;;;;;25.85;9.23;;;;;;;;;;5073501;28;20470;-75
2021/09/16 08:27:38;;;;;;;25.35;8.73;;;;;;;;;;5071671;28;20033;-68
2021/09/16 08:30:05;;;;;;;17.98;8.05;;;;;;;;;;5069370;28;20037;-74
2021/09/16 08:32:31;;;;;;;16.17;7.75;;;;;;;;;;5075236;28;20382;-73
2021/09/16 08:34:58;;;;;;;25.48;8.30;;;;;;;;;;5055549;28;20036;-75
2021/09/16 08:37:24;;;;;;;19.88;7.88;;;;;;;;;;5071175;28;20055;-75
2021/09/16 08:39:50;;;;;;;18.55;8.07;;;;;;;;;;5054567;28;20074;-75
2021/09/16 08:42:17;;;;;;;21.50;7.65;;;;;;;;;;5071084;28;20085;-73
2021/09/16 08:44:43;;;;;;;16.15;7.07;;;;;;;;;;5073342;28;20025;-69
2021/09/16 08:47:11;;;;;;;18.98;7.63;;;;;;;;;;5070638;28;20037;-69
2021/09/16 08:49:37;;;;;;;16.02;7.43;;;;;;;;;;5068283;28;20393;-68
2021/09/16 08:52:03;;;;;;;22.23;7.90;;;;;;;;;;5067346;28;20115;-69
2021/09/16 08:54:30;;;;;;;15.07;7.50;;;;;;;;;;5066300;28;20025;-67
2021/09/16 08:56:56;;;;;;;17.10;7.25;;;;;;;;;;5072504;28;20092;-68
2021/09/16 08:59:22;;;;;;;13.07;6.72;;;;;;;;;;5063158;28;20025;-70
2021/09/16 09:01:48;;;;;;;21.25;7.10;;;;;;;;;;5065365;28;20028;-71
2021/09/16 09:04:14;;;;;;;13.77;5.93;;;;;;;;;;5071778;28;20482;-68
2021/09/16 09:06:42;;;;;;;13.93;5.53;;;;;;;;;;5054489;28;20050;-69
2021/09/16 09:09:19;;;;;;;17.45;5.93;;;;;;;;;;5072626;28;20017;-67
2021/09/16 09:11:59;;;;;;;19.27;5.50;;;;;;;;;;5072012;28;20094;-70
2021/09/16 09:14:27;;;;;;;16.60;5.45;;;;;;;;;;5071742;28;20056;-67
2021/09/16 09:16:54;;;;;;;17.77;5.43;;;;;;;;;;5067826;28;20025;-68
2021/09/16 09:19:40;;;;;;;;;;;;;;;;;;;;;
2021/09/16 09:22:27;;;;;;;22.50;6.25;;;;;;;;;;5072603;28;20039;-75
2021/09/16 09:24:58;;;;;;;10.88;5.47;;;;;;;;;;5047954;28;20027;-76
2021/09/16 09:27:26;;;;;;;10.77;5.30;;;;;;;;;;5066943;28;20041;-76
2021/09/16 09:30:11;;;;;;;13.65;5.22;;;;;;;;;;5069542;28;20027;-74
2021/09/16 09:32:49;;;;;;;16.90;5.55;;;;;;;;;;5064180;28;20099;-75
2021/09/16 09:35:28;;;;;;;15.32;5.75;;;;;;;;;;5068775;28;20029;-74
2021/09/16 09:37:54;;;;;;;12.73;5.30;;;;;;;;;;5065080;28;20024;-78
2021/09/16 09:40:32;;;;;;;16.77;5.78;;;;;;;;;;5070076;28;20048;-70
2021/09/16 09:43:17;;;;;;;22.67;6.07;;;;;;;;;;5064739;28;20032;-67
2021/09/16 09:46:01;;;;;;;17.60;6.60;;;;;;;;;;5070427;28;20070;-68
2021/09/16 09:48:27;;;;;;;19.15;5.25;;;;;;;;;;5069359;28;20036;-68
2021/09/16 09:50:54;;;;;;;22.05;5.40;;;;;;;;;;5071193;28;20493;-68
2021/09/16 09:53:20;;;;;;;17.63;6.22;;;;;;;;;;5064882;28;20036;-70
2021/09/16 09:55:46;;;;;;;16.10;5.65;;;;;;;;;;5066978;28;20089;-76
2021/09/16 09:58:13;;;;;;;18.70;5.80;;;;;;;;;;5071808;28;20362;-76
2021/09/16 10:00:39;;;;;;;21.70;5.68;;;;;;;;;;5052609;28;20028;-74
2021/09/16 10:03:06;;;;;;;18.27;5.53;;;;;;;;;;5071315;28;20051;-78
2021/09/16 10:05:33;;;;;;;17.42;6.45;;;;;;;;;;5067022;28;20486;-76
2021/09/16 10:08:05;;;;;;;16.15;5.47;;;;;;;;;;5070070;28;20040;-76
2021/09/16 10:10:38;;;;;;;21.20;6.30;;;;;;;;;;5070733;28;20027;-72
2021/09/16 10:13:04;;;;;;;16.50;4.93;;;;;;;;;;5071359;28;20133;-72
2021/09/16 10:15:30;;;;;;;16.65;5.70;;;;;;;;;;5053576;28;20042;-70
2021/09/16 10:17:56;;;;;;;19.67;5.95;;;;;;;;;;5064749;28;20594;-69
2021/09/16 10:20:24;;;;;;;17.35;5.72;;;;;;;;;;5065213;28;20024;-77
2021/09/16 10:22:52;;;;;;;21.52;5.38;;;;;;;;;;5069491;28;20035;-76
2021/09/16 10:25:19;;;;;;;20.05;5.70;;;;;;;;;;5070153;28;20020;-78
2021/09/16 10:27:56;;;;;;;16.38;5.70;;;;;;;;;;5068517;28;20047;-72
2021/09/16 10:30:22;;;;;;;18.67;6.47;;;;;;;;;;5069430;28;20036;-72
2021/09/16 10:33:03;;;;;;;19.95;5.97;;;;;;;;;;5069805;28;20111;-74
2021/09/16 10:35:30;;;;;;;18.55;6.00;;;;;;;;;;5067783;28;20504;-74
2021/09/16 10:37:56;;;;;;;19.23;5.85;;;;;;;;;;5073538;28;20036;-80
2021/09/16 10:40:33;;;;;;;18.98;6.15;;;;;;;;;;5046385;28;20027;-75
2021/09/16 10:43:06;;;;;;;17.85;6.22;;;;;;;;;;5052280;28;20055;-75
2021/09/16 10:45:40;;;;;;;26.40;6.30;;;;;;;;;;5051216;28;20021;-76
2021/09/16 10:48:21;;;;;;;21.73;6.30;;;;;;;;;;5066630;28;20040;-75
2021/09/16 10:50:54;;;;;;;22.77;6.15;;;;;;;;;;5048019;28;20424;-76
2021/09/16 10:54:05;;;;;;;24.83;6.82;;;;;;;;;;5051408;28;20020;-71
2021/09/16 10:56:31;;;;;;;18.17;6.32;;;;;;;;;;5028364;28;20112;-76
2021/09/16 10:58:58;;;;;;;23.23;6.55;;;;;;;;;;5074135;28;20076;-74
2021/09/16 11:01:42;;;;;;;19.90;6.25;;;;;;;;;;5052179;28;20052;-76
2021/09/16 11:04:09;;;;;;;21.65;6.70;;;;;;;;;;5067758;28;20033;-77
2021/09/16 11:06:41;;;;;;;22.42;6.97;;;;;;;;;;5069754;28;20021;-79
2021/09/16 11:09:08;;;;;;;21.17;6.70;;;;;;;;;;5065036;28;20103;-76
2021/09/16 11:11:50;;;;;;;15.25;6.18;;;;;;;;;;5071245;28;20028;-77
2021/09/16 11:14:25;;;;;;;28.47;6.90;;;;;;;;;;5067726;28;20485;-69
2021/09/16 11:16:55;;;;;;;30.63;7.47;;;;;;;;;;5068988;28;20272;-74
2021/09/16 11:19:21;;;;;;;22.60;6.20;;;;;;;;;;5074466;28;20033;-73
2021/09/16 11:22:01;;;;;;;26.15;6.90;;;;;;;;;;5073842;28;20040;-72
2021/09/16 11:24:31;;;;;;;25.77;6.43;;;;;;;;;;5068474;28;20028;-72
2021/09/16 11:26:57;;;;;;;21.58;6.82;;;;;;;;;;5074094;28;20032;-75
2021/09/16 11:29:27;;;;;;;24.95;6.38;;;;;;;;;;5069253;28;20024;-75
2021/09/16 11:32:05;;;;;;;22.40;6.85;;;;;;;;;;5078293;28;20122;-67
2021/09/16 11:34:31;;;;;;;18.77;6.80;;;;;;;;;;5069532;28;20032;-67
2021/09/16 11:37:03;;;;;;;23.90;6.97;;;;;;;;;;5074565;28;20024;-67
2021/09/16 11:39:29;;;;;;;21.67;6.22;;;;;;;;;;5072524;28;20017;-68
2021/09/16 11:42:12;;;;;;;24.83;6.90;;;;;;;;;;5071992;28;20044;-68
2021/09/16 11:44:53;;;;;;;20.20;6.07;;;;;;;;;;5055558;28;20107;-78
2021/09/16 11:47:27;;;;;;;26.85;7.00;;;;;;;;;;5055288;28;20052;-77
2021/09/16 11:49:56;;;;;;;21.33;6.47;;;;;;;;;;5054787;28;20022;-74
2021/09/16 11:52:26;;;;;;;24.52;7.05;;;;;;;;;;5072484;28;20031;-84
2021/09/16 11:55:03;;;;;;;26.35;6.72;;;;;;;;;;5071665;28;20032;-76
2021/09/16 11:57:29;;;;;;;22.20;6.55;;;;;;;;;;5073975;28;20086;-72
2021/09/16 11:59:55;;;;;;;25.90;7.15;;;;;;;;;;5073827;28;20025;-74
2021/09/16 12:02:21;;;;;;;35.72;7.32;;;;;;;;;;5072569;28;20056;-73
2021/09/16 12:04:48;;;;;;;24.23;7.05;;;;;;;;;;5069446;28;20059;-73
2021/09/16 12:07:18;;;;;;;26.45;6.90;;;;;;;;;;5071865;28;20042;-69
2021/09/16 12:09:44;;;;;;;25.27;6.95;;;;;;;;;;5071656;28;20569;-68
2021/09/16 12:12:11;;;;;;;23.90;6.43;;;;;;;;;;5069072;28;20386;-68
2021/09/16 12:14:37;;;;;;;27.98;6.88;;;;;;;;;;5073908;28;20490;-70
2021/09/16 12:17:06;;;;;;;27.58;7.20;;;;;;;;;;5072998;28;20086;-70
2021/09/16 12:19:32;;;;;;;25.42;6.63;;;;;;;;;;5072769;28;20035;-69
2021/09/16 12:22:00;;;;;;;25.80;6.78;;;;;;;;;;5066812;28;20028;-68
2021/09/16 12:24:27;;;;;;;22.45;7.13;;;;;;;;;;5072825;28;20051;-69
2021/09/16 12:26:54;;;;;;;25.27;6.88;;;;;;;;;;5071729;28;20032;-69
2021/09/16 12:29:24;;;;;;;24.63;7.15;;;;;;;;;;5071050;28;20397;-68
2021/09/16 12:31:57;;;;;;;28.90;8.30;;;;;;;;;;5071465;28;20078;-68
2021/09/16 12:34:23;;;;;;;30.93;7.43;;;;;;;;;;5073662;28;20085;-72
2021/09/16 12:37:15;;;;;;;25.02;7.20;;;;;;;;;;5071943;28;20055;-75
2021/09/16 12:39:45;;;;;;;21.73;6.97;;;;;;;;;;5072639;28;20025;-72
2021/09/16 12:42:14;;;;;;;35.58;8.32;;;;;;;;;;5071382;28;20035;-74
2021/09/16 12:44:41;;;;;;;27.42;7.35;;;;;;;;;;5072914;28;20477;-75
2021/09/16 12:47:10;;;;;;;28.23;7.78;;;;;;;;;;5055282;28;20457;-72
2021/09/16 12:49:39;;;;;;;23.95;7.15;;;;;;;;;;5067367;28;20413;-73
2021/09/16 12:52:15;;;;;;;28.90;6.95;;;;;;;;;;5068885;28;20074;-73
2021/09/16 12:54:48;;;;;;;118.32;12.75;;;;;;;;;;5071257;28;20494;-72
2021/09/16 12:57:20;;;;;;;31.27;7.15;;;;;;;;;;5054215;28;20064;-74
2021/09/16 13:00:06;;;;;;;29.70;7.37;;;;;;;;;;5046529;28;20043;-73
2021/09/16 13:02:44;;;;;;;23.58;6.88;;;;;;;;;;5075737;28;20148;-77
2021/09/16 13:05:19;;;;;;;22.83;7.22;;;;;;;;;;5067236;28;20111;-69
2021/09/16 13:08:02;;;;;;;30.20;7.78;;;;;;;;;;5068744;28;20067;-73
2021/09/16 13:10:28;;;;;;;30.52;7.65;;;;;;;;;;5070569;28;20031;-73
2021/09/16 13:13:27;;;;;;;37.53;7.72;;;;;;;;;;5068723;28;20029;-75
2021/09/16 13:15:54;;;;;;;33.42;7.70;;;;;;;;;;5004742;28;20041;-77
2021/09/16 13:18:20;;;;;;;34.30;7.38;;;;;;;;;;5003773;28;20053;-66
2021/09/16 13:20:46;;;;;;;32.85;7.97;;;;;;;;;;5010584;28;20036;-70
2021/09/16 13:23:14;;;;;;;32.40;8.27;;;;;;;;;;5007976;28;20066;-70
2021/09/16 13:25:40;;;;;;;32.95;7.15;;;;;;;;;;5006736;28;20042;-69
2021/09/16 13:28:06;;;;;;;28.10;7.88;;;;;;;;;;5010724;28;20121;-69
2021/09/16 13:30:33;;;;;;;33.50;7.65;;;;;;;;;;5008399;28;20033;-68
2021/09/16 13:32:59;;;;;;;33.55;7.65;;;;;;;;;;5008180;28;20085;-69
2021/09/16 13:35:25;;;;;;;38.72;8.32;;;;;;;;;;5009544;28;20173;-67
2021/09/16 13:37:52;;;;;;;35.53;8.05;;;;;;;;;;5009361;28;20126;-68
2021/09/16 13:40:19;;;;;;;33.05;7.93;;;;;;;;;;5008696;28;20125;-77
2021/09/16 13:42:45;;;;;;;35.75;7.78;;;;;;;;;;4988590;28;20052;-75
2021/09/16 13:45:12;;;;;;;35.35;7.55;;;;;;;;;;4993132;28;20030;-75
2021/09/16 13:47:46;;;;;;;34.15;8.38;;;;;;;;;;5007315;28;20044;-76
2021/09/16 13:50:14;;;;;;;34.90;7.30;;;;;;;;;;5009007;28;20491;-75
2021/09/16 13:52:40;;;;;;;48.08;8.25;;;;;;;;;;5074021;28;20519;-71
2021/09/16 13:55:12;;;;;;;33.80;7.15;;;;;;;;;;5065902;28;20080;-74
2021/09/16 13:57:39;;;;;;;42.85;8.15;;;;;;;;;;5071879;28;20017;-76
2021/09/16 14:00:06;;;;;;;33.10;7.75;;;;;;;;;;5070317;28;20020;-74
2021/09/16 14:02:32;;;;;;;27.17;6.85;;;;;;;;;;5051872;28;20052;-74
2021/09/16 14:04:58;;;;;;;40.17;8.05;;;;;;;;;;5053252;28;20086;-76
2021/09/16 14:07:24;;;;;;;36.03;7.57;;;;;;;;;;5072583;28;20070;-75
2021/09/16 14:09:50;;;;;;;32.83;8.65;;;;;;;;;;5071215;28;20393;-75
2021/09/16 14:12:16;;;;;;;109.22;11.25;;;;;;;;;;5071687;28;20386;-74
2021/09/16 14:14:45;;;;;;;78.28;9.57;;;;;;;;;;5067687;28;20021;-75
2021/09/16 14:17:11;;;;;;;31.52;7.03;;;;;;;;;;5071166;28;20035;-75
2021/09/16 14:19:37;;;;;;;36.15;7.78;;;;;;;;;;5071673;28;20094;-75
2021/09/16 14:22:03;;;;;;;36.45;7.82;;;;;;;;;;5071444;28;20025;-75
2021/09/16 14:24:29;;;;;;;47.83;9.02;;;;;;;;;;5065868;28;20025;-75
2021/09/16 14:26:55;;;;;;;37.83;7.50;;;;;;;;;;5069503;28;20095;-74
2021/09/16 14:29:22;;;;;;;37.20;7.75;;;;;;;;;;5070298;28;20493;-76
2021/09/16 14:31:48;;;;;;;26.48;6.70;;;;;;;;;;5069727;28;20086;-75
2021/09/16 14:34:14;;;;;;;30.52;7.25;;;;;;;;;;5071235;28;20028;-75
2021/09/16 14:36:43;;;;;;;34.38;8.20;;;;;;;;;;5071363;28;20040;-75
2021/09/16 14:39:09;;;;;;;30.05;7.38;;;;;;;;;;5071251;28;20054;-75